Aérodrome :
LOGIN :

S'inscrire | Disclaimer

   EN    FR    IT 

 










Légende :    VFR   VFR Marginal   IFR   IFR Intensif   IFR Très Intensif
Visi : 
Plafond : 
>= 8 km
>= 3000ft
5 à 8 km
1000 à 3000 ft
1500m à 5 km
500 à 1000 ft
800 à 1500m
200 à 500 ft
< 800m
< 200 ft
Symboles :   Orages  Brouillard  Fortes neiges  Fortes précipitations  Vent > 20 kt
SIGMETs :   Divers  Orages  Givrage  Turbulence  Onde Orograph.  Cendres Volcan.






- Altitude de l'aérodrome : 102 ft
- Code IATA : CNG


LFBG - Cognac

DERNIER METAR :
  • 231430Z AUTO 31008KT 9999 FEW023/// BKN078/// OVC092/// ///CB 18/11 Q1018 TEMPO 2000 -TSRA

METARs EXPIRÉS :
  • 231400Z AUTO 23008KT 9999 ///CB 17/14 Q1018 TEMPO 2000 -TSRA
  • 231330Z AUTO 27008KT 240V300 9999 FEW021/// OVC078/// ///TCU 18/12 Q1018 TEMPO 2000 -TSRA BKN015CB
  • 231300Z AUTO 26007KT 9999 FEW022/// OVC068/// ///CB 17/13 Q1019 TEMPO 2000 -TSRA
  • 231230Z AUTO 28007KT 6000 -RA FEW023/// SCT033/// OVC056/// ///CB 15/13 Q1019 TEMPO 2000 -TSRA
  • 231200Z AUTO 27005KT 200V340 9999 FEW027/// SCT094/// OVC140/// ///TCU 18/12 Q1018 TEMPO 2000 -TSRA BKN015CB
  • 231130Z AUTO 22007KT 9999 FEW034/// SCT043/// BKN054/// ///TCU 16/12 Q1019 TEMPO 2000 -TSRA BKN015CB BECMG 28010KT
  • 231100Z AUTO 24008KT 9999 -RA FEW038/// BKN086/// BKN120/// ///CB 15/12 Q1019 TEMPO 2000 -TSRA
  • 231030Z AUTO 25010KT 9999 BKN026/// BKN033/// BKN041/// ///CB 16/11 Q1019 TEMPO 2000 -TSRA
  • 231000Z AUTO 18004KT 100V240 9999 BKN025/// BKN030/// ///CB 18/12 Q1019 TEMPO 2000 -TSRA

TAF TAF LFBG
Valide du 23 à 15h jusqu'au 24 à 15h UTC


231400Z 2315/2415 28010KT 9999 FEW025
TEMPO 2315/2318 BKN025CB
PROB40
TEMPO 2315/2318 4500 -SHRA
BECMG 2319/2321 VRB03KT
PROB30
TEMPO 2322/2324 -SHRA BKN030TCU
PROB30
TEMPO 2405/2408 BKN006
BECMG 2408/2409 FEW015TCU
TEMPO 2410/2415 4500 -SHRA BKN025CB



MET'MAP, la Météo Aéronautique d'un coup d'oeil ! - Copyright ORBIFLY Décembre 2007 - Disclaimer

ORBIFLY MET'MAP TEAM :

Programmation & Développement : Alexandra Zaïnal
Sur une idée originale de : Baudouin d'Aumeries
Soutien technique & logistique : Manuel Goepfert
Assistance : Marc-Olivier Méhu




SOURCES & CREDITS :

   NOAA